KWJF

Details ICAO KWJF (WJF)
Name General Wm J Fox Airfield
Region United States
Timezone America/Los_Angeles (UTC-7.0)
Plans Departing 73
Arriving 34
Stats Elevation 2,351 ft / 717 m (AMSL)
Location 34.741000° -118.219000°
Runways 1
Magnetic Variation 11.996° E
Sunrise 2019-05-24 12:45:40 UTC / 2019-05-24 05:45:40 Local
Sunset 2019-05-25 02:56:39 UTC / 2019-05-24 19:56:39 Local
Advertisement - Login to hide

Runways

ID Width Length Bearing (true/mag) Surface Threshold Overrun Markings Lighting
06 151 ft / 46 m 7,189 ft / 2,191 m 71.98° / 59.99° ASPHALT 0 ft / 0 m 200 ft / 61 m APP EDGE THRESHOLD REIL-OMNI
24 151 ft / 46 m 7,189 ft / 2,191 m 252.00° / 240.00° ASPHALT 0 ft / 0 m 200 ft / 61 m APP EDGE THRESHOLD REIL-OMNI

Map

Weather


0- 5 10 15 20 25 30 35+ Temperature / °C

Clouds and Precipitation
Forecast for 2019-05-24 12:00 UTC. Updated 6 hours ago

Ground ~20,000 ft ~40,000 ft Winds

METAR

KWJF 241456Z AUTO 00000KT 10SM FEW047 11/06 A3002 RMK AO2 SLP167 T01060056 53012

TAF

KWJF 241128Z 2412/2512 VRB03KT P6SM SKC FM241800 04006KT P6SM SCT200 FM242300 25010KT P6SM SCT200

Frequencies

Recorded 126.30 MHz ATIS
Recorded 133.87 MHz AWOS
Unicom 120.30 MHz CTAF
Unicom 122.95 MHz UNICOM
Ground 121.70 MHz
Tower 120.30 MHz
Approach 126.10 MHz JOSHUA APP/DEP
Warning: Do not use this data for real-world aviation or navigation. No guarantee of current accuracy is given.